Time;durP1;ratioP1;P1;durP2;ratioP2;P2;SDS_P1;SDS_P2;PMS_P1;PMS_P2;Temp;Humidity;BMP_temperature;BMP_pressure;BME280_temperature;BME280_humidity;BME280_pressure;Samples;Min_cycle;Max_cycle;Signal;HPM_P1;HPM_P2
2022/12/12 00:01:50;;;;;;;33.45;17.98;;;0.20;99.90;;;;;;5111559;28;20039;-62
2022/12/12 00:04:16;;;;;;;32.78;17.05;;;0.20;99.90;;;;;;5113144;28;20043;-62
2022/12/12 00:06:41;;;;;;;35.83;18.23;;;0.30;99.90;;;;;;5113564;28;20031;-63
2022/12/12 00:09:08;;;;;;;33.08;17.38;;;0.20;99.90;;;;;;5111651;28;20540;-62
2022/12/12 00:11:34;;;;;;;35.05;20.00;;;0.30;99.90;;;;;;5113271;28;20051;-62
2022/12/12 00:14:00;;;;;;;31.40;16.73;;;0.30;99.90;;;;;;5113457;28;20161;-62
2022/12/12 00:16:26;;;;;;;30.95;16.50;;;0.30;99.90;;;;;;5111415;28;20428;-62
2022/12/12 00:18:52;;;;;;;30.70;17.00;;;0.40;99.90;;;;;;5112991;28;20369;-62
2022/12/12 00:21:24;;;;;;;33.80;18.10;;;0.40;99.90;;;;;;5113121;28;20032;-62
2022/12/12 00:23:49;;;;;;;35.78;17.50;;;0.40;99.90;;;;;;5111587;28;20126;-62
2022/12/12 00:26:19;;;;;;;29.63;16.88;;;0.40;99.90;;;;;;5111670;28;20123;-62
2022/12/12 00:28:45;;;;;;;30.85;16.90;;;0.40;99.90;;;;;;5109865;28;20385;-62
2022/12/12 00:31:11;;;;;;;29.17;17.50;;;0.50;99.90;;;;;;5112836;28;20104;-62
2022/12/12 00:33:36;;;;;;;31.25;18.58;;;0.50;99.90;;;;;;5112848;28;20458;-62
2022/12/12 00:36:02;;;;;;;40.33;17.92;;;0.50;99.90;;;;;;5112226;28;20043;-62
2022/12/12 00:38:28;;;;;;;28.40;15.48;;;0.50;99.90;;;;;;5112653;28;20438;-62
2022/12/12 00:40:58;;;;;;;32.90;17.63;;;0.50;99.90;;;;;;5111196;28;20118;-62
2022/12/12 00:43:25;;;;;;;30.98;16.83;;;0.50;99.90;;;;;;5112229;28;20061;-62
2022/12/12 00:45:50;;;;;;;28.98;16.52;;;0.50;99.90;;;;;;5094053;28;20039;-62
2022/12/12 00:48:16;;;;;;;32.35;17.58;;;0.50;99.90;;;;;;5112663;28;20041;-62
2022/12/12 00:50:42;;;;;;;33.30;17.95;;;0.50;99.90;;;;;;5112088;28;20498;-62
2022/12/12 00:53:08;;;;;;;33.80;17.83;;;0.50;99.90;;;;;;5112315;28;20036;-62
2022/12/12 00:55:34;;;;;;;30.40;16.13;;;0.50;99.90;;;;;;5112686;28;20043;-62
2022/12/12 00:57:59;;;;;;;34.45;17.90;;;0.50;99.90;;;;;;5110828;28;20047;-62
2022/12/12 01:00:25;;;;;;;30.27;17.67;;;0.50;99.90;;;;;;5112019;28;20078;-62
2022/12/12 01:02:51;;;;;;;27.98;16.98;;;0.50;99.90;;;;;;5112552;28;20047;-61
2022/12/12 01:05:17;;;;;;;32.25;18.38;;;0.50;99.90;;;;;;5110620;28;20031;-62
2022/12/12 01:07:43;;;;;;;33.60;18.58;;;0.50;99.90;;;;;;5112088;28;20074;-62
2022/12/12 01:10:09;;;;;;;31.05;18.90;;;0.50;99.90;;;;;;5111129;28;20111;-62
2022/12/12 01:12:35;;;;;;;32.75;17.45;;;0.50;99.90;;;;;;5112259;28;20084;-62
2022/12/12 01:15:03;;;;;;;32.58;17.65;;;0.50;99.90;;;;;;5110892;28;20573;-62
2022/12/12 01:17:34;;;;;;;29.50;17.55;;;0.50;99.90;;;;;;5111418;28;20442;-62
2022/12/12 01:20:01;;;;;;;28.73;16.75;;;0.50;99.90;;;;;;5110619;28;20043;-62
2022/12/12 01:22:27;;;;;;;31.85;17.63;;;0.50;99.90;;;;;;5112014;28;20438;-62
2022/12/12 01:24:55;;;;;;;31.83;18.05;;;0.50;99.90;;;;;;5112440;28;20031;-62
2022/12/12 01:27:21;;;;;;;29.75;17.33;;;0.40;99.90;;;;;;5111397;28;20135;-62
2022/12/12 01:29:48;;;;;;;33.53;18.20;;;0.40;99.90;;;;;;5112118;28;20161;-62
2022/12/12 01:32:13;;;;;;;33.28;17.85;;;0.40;99.90;;;;;;5111575;28;20043;-61
2022/12/12 01:34:39;;;;;;;32.53;18.52;;;0.30;99.90;;;;;;5112493;28;20039;-61
2022/12/12 01:37:05;;;;;;;28.52;16.13;;;0.30;99.90;;;;;;5110229;28;20058;-61
2022/12/12 01:39:30;;;;;;;32.85;18.13;;;0.30;99.90;;;;;;5110762;28;20086;-62
2022/12/12 01:41:56;;;;;;;30.42;17.55;;;0.30;99.90;;;;;;5111773;28;20028;-62
2022/12/12 01:44:45;;;;;;;28.95;15.90;;;0.20;99.90;;;;;;5111867;28;20032;-62
2022/12/12 01:47:16;;;;;;;31.23;18.20;;;0.20;99.90;;;;;;5113467;28;20458;-62
2022/12/12 01:50:07;;;;;;;25.85;14.90;;;0.20;99.90;;;;;;5114502;28;20050;-62
2022/12/12 01:52:43;;;;;;;33.03;17.10;;;0.20;99.90;;;;;;5115023;28;20496;-62
2022/12/12 01:55:14;;;;;;;29.70;15.48;;;0.20;99.90;;;;;;5114193;28;20142;-62
2022/12/12 01:57:47;;;;;;;28.98;16.85;;;0.20;99.90;;;;;;5115732;27;20031;-62
2022/12/12 02:00:14;;;;;;;32.22;17.95;;;0.10;99.90;;;;;;5115435;28;20377;-62
2022/12/12 02:02:42;;;;;;;32.05;16.90;;;0.10;99.90;;;;;;5115117;28;20043;-62
2022/12/12 02:05:27;;;;;;;28.83;15.43;;;0.10;99.90;;;;;;5115756;27;20036;-62
2022/12/12 02:07:54;;;;;;;28.42;15.82;;;0.10;99.90;;;;;;5114117;28;20522;-62
2022/12/12 02:10:20;;;;;;;33.20;16.80;;;0.00;99.90;;;;;;5114132;28;20047;-62
2022/12/12 02:12:46;;;;;;;27.27;15.80;;;0.10;99.90;;;;;;5115719;28;20039;-62
2022/12/12 02:15:12;;;;;;;30.65;16.73;;;0.00;99.90;;;;;;5113805;28;20039;-61
2022/12/12 02:17:58;;;;;;;32.75;17.67;;;0.00;99.90;;;;;;5115584;28;20039;-62
2022/12/12 02:20:49;;;;;;;32.30;16.33;;;0.10;99.90;;;;;;5114167;28;20056;-62
2022/12/12 02:23:50;;;;;;;29.90;16.42;;;0.10;99.90;;;;;;5113473;28;20161;-62
2022/12/12 02:26:46;;;;;;;31.17;16.20;;;0.10;99.90;;;;;;5075734;28;20124;-62
2022/12/12 02:29:12;;;;;;;31.38;16.92;;;0.20;99.90;;;;;;5114602;28;20036;-62
2022/12/12 02:32:14;;;;;;;27.60;15.80;;;0.20;99.90;;;;;;5115548;28;20093;-62
2022/12/12 02:35:00;;;;;;;30.38;16.05;;;0.20;99.90;;;;;;5102202;28;20048;-62
2022/12/12 02:38:04;;;;;;;;;;;0.20;99.90;;;;;;5114883;28;20119;-62
2022/12/12 02:40:47;;;;;;;30.35;15.85;;;0.20;99.90;;;;;;5032561;28;20010;-62
2022/12/12 02:43:33;;;;;;;29.52;16.63;;;0.20;99.90;;;;;;5015482;28;20067;-62
2022/12/12 02:46:33;;;;;;;29.63;16.10;;;0.30;99.90;;;;;;5051649;28;20054;-62
2022/12/12 02:49:05;;;;;;;30.17;16.23;;;0.30;99.90;;;;;;5113481;28;20075;-62
2022/12/12 02:51:33;;;;;;;33.03;17.88;;;0.30;99.90;;;;;;5114722;28;20094;-62
2022/12/12 02:53:59;;;;;;;26.45;16.02;;;0.30;99.90;;;;;;5114463;28;20078;-62
2022/12/12 02:56:46;;;;;;;27.70;15.75;;;0.30;99.90;;;;;;5113201;28;20043;-62
2022/12/12 02:59:24;;;;;;;32.03;16.70;;;0.30;99.90;;;;;;5111981;28;20484;-61
2022/12/12 03:02:02;;;;;;;27.77;14.88;;;0.30;99.90;;;;;;5113749;28;20093;-61
2022/12/12 03:07:48;;;;;;;32.53;14.90;;;0.30;99.90;;;;;;5114359;28;20112;-62
2022/12/12 03:10:40;;;;;;;29.45;16.63;;;0.20;99.90;;;;;;5113219;28;20048;-61
2022/12/12 03:13:18;;;;;;;30.40;16.55;;;0.30;99.90;;;;;;5114376;28;20080;-62
2022/12/12 03:15:53;;;;;;;31.25;17.05;;;0.30;99.90;;;;;;5113373;28;20556;-62
2022/12/12 03:18:37;;;;;;;36.42;18.23;;;0.30;99.90;;;;;;5112548;28;20039;-62
2022/12/12 03:21:06;;;;;;;33.03;17.10;;;0.30;99.90;;;;;;5112705;28;20043;-61
2022/12/12 03:23:40;;;;;;;32.28;18.42;;;0.30;99.90;;;;;;5113142;28;20044;-61
2022/12/12 03:26:23;;;;;;;34.95;17.25;;;0.20;99.90;;;;;;5112067;28;20039;-62
2022/12/12 03:29:00;;;;;;;29.10;15.65;;;0.30;99.90;;;;;;5112466;28;20061;-62
2022/12/12 03:31:29;;;;;;;30.60;16.17;;;0.30;99.90;;;;;;5114054;28;20047;-62
2022/12/12 03:34:03;;;;;;;29.20;17.02;;;0.30;99.90;;;;;;5112186;28;20122;-62
2022/12/12 03:36:54;;;;;;;30.83;17.10;;;0.30;99.90;;;;;;5112795;28;20051;-62
2022/12/12 03:39:28;;;;;;;30.75;16.10;;;0.30;99.90;;;;;;5112141;28;20104;-62
2022/12/12 03:42:23;;;;;;;31.88;17.65;;;0.30;99.90;;;;;;5112371;28;20044;-62
2022/12/12 03:44:56;;;;;;;31.52;17.05;;;0.30;99.90;;;;;;5111964;28;20489;-61
2022/12/12 03:47:32;;;;;;;28.23;16.73;;;0.30;99.90;;;;;;5111932;28;20075;-62
2022/12/12 03:50:10;;;;;;;31.13;17.00;;;0.30;99.90;;;;;;5113637;28;20396;-62
2022/12/12 03:52:55;;;;;;;26.23;15.23;;;0.30;99.90;;;;;;5113006;28;20114;-62
2022/12/12 03:55:30;;;;;;;29.55;15.95;;;0.30;99.90;;;;;;5112242;28;20040;-61
2022/12/12 03:58:23;;;;;;;32.55;18.27;;;0.30;99.90;;;;;;5113541;28;20374;-61
2022/12/12 04:00:52;;;;;;;24.63;14.48;;;0.30;99.90;;;;;;5112794;28;20036;-62
2022/12/12 04:03:27;;;;;;;32.60;16.92;;;0.30;99.90;;;;;;5111993;28;20050;-62
2022/12/12 04:14:33;;;;;;;33.60;18.38;;;0.30;99.90;;;;;;5112571;28;20135;-62
2022/12/12 04:17:03;;;;;;;35.60;18.80;;;0.30;99.90;;;;;;5111694;28;20059;-62
2022/12/12 04:25:30;;;;;;;31.85;16.80;;;0.40;99.90;;;;;;5112800;28;20399;-62
2022/12/12 04:28:03;;;;;;;29.65;15.15;;;0.30;99.90;;;;;;5094160;28;20055;-62
2022/12/12 04:30:32;;;;;;;29.73;16.38;;;0.40;99.90;;;;;;5113281;28;20047;-62
2022/12/12 04:33:07;;;;;;;28.67;15.82;;;0.40;99.90;;;;;;5112921;28;20498;-62
2022/12/12 04:35:42;;;;;;;30.70;15.52;;;0.40;99.90;;;;;;5111399;28;20051;-62
2022/12/12 04:38:22;;;;;;;30.73;16.70;;;0.40;99.90;;;;;;5112411;28;20044;-62
2022/12/12 04:40:55;;;;;;;28.17;15.48;;;0.40;99.90;;;;;;5112992;28;20040;-62
2022/12/12 04:43:39;;;;;;;27.05;15.32;;;0.40;99.90;;;;;;5112351;28;20061;-62
2022/12/12 04:46:08;;;;;;;28.40;15.35;;;0.40;99.90;;;;;;5111143;28;20044;-61
2022/12/12 04:48:58;;;;;;;28.52;15.82;;;0.40;99.90;;;;;;5111677;28;20483;-61
2022/12/12 04:51:35;;;;;;;29.02;15.65;;;0.40;99.90;;;;;;5112454;28;20132;-62
2022/12/12 04:54:10;;;;;;;30.13;15.48;;;0.40;99.90;;;;;;5112745;28;20062;-62
2022/12/12 04:56:38;;;;;;;28.10;14.95;;;0.40;99.90;;;;;;5111128;28;20043;-61
2022/12/12 04:59:05;;;;;;;28.33;14.70;;;0.40;99.90;;;;;;5111926;28;20438;-62
2022/12/12 05:01:46;;;;;;;29.17;15.45;;;0.50;99.90;;;;;;5111678;28;20126;-62
2022/12/12 05:04:20;;;;;;;24.85;14.77;;;0.50;99.90;;;;;;5110773;28;20043;-62
2022/12/12 05:06:52;;;;;;;26.48;14.88;;;0.50;99.90;;;;;;5112217;28;20380;-62
2022/12/12 05:09:18;;;;;;;30.27;16.17;;;0.50;99.90;;;;;;5111070;28;20046;-62
2022/12/12 05:11:44;;;;;;;27.67;15.25;;;0.50;99.90;;;;;;5110539;28;20075;-62
2022/12/12 05:14:14;;;;;;;27.08;15.88;;;0.50;99.90;;;;;;5112307;28;20075;-62
2022/12/12 05:17:04;;;;;;;32.75;18.92;;;0.50;99.90;;;;;;5112815;28;20036;-62
2022/12/12 05:19:29;;;;;;;28.42;16.75;;;0.50;99.90;;;;;;5110851;28;20072;-62
2022/12/12 05:21:55;;;;;;;28.20;16.15;;;0.50;99.90;;;;;;5113729;28;20132;-62
2022/12/12 05:24:21;;;;;;;26.80;15.88;;;0.60;99.90;;;;;;5114831;28;20080;-62
2022/12/12 05:26:47;;;;;;;28.13;16.70;;;0.50;99.90;;;;;;5115078;28;20067;-62
2022/12/12 05:29:12;;;;;;;29.35;16.58;;;0.50;99.90;;;;;;5116459;28;20048;-62
2022/12/12 05:31:38;;;;;;;29.80;17.20;;;0.50;99.90;;;;;;5115017;28;20050;-62
2022/12/12 05:34:04;;;;;;;25.35;15.40;;;0.60;99.90;;;;;;5097592;28;20404;-62
2022/12/12 05:36:29;;;;;;;27.25;15.93;;;0.60;99.90;;;;;;5115000;28;20051;-62
2022/12/12 05:38:56;;;;;;;26.88;16.10;;;0.60;99.90;;;;;;5114486;28;20046;-62
2022/12/12 05:41:22;;;;;;;26.83;15.40;;;0.60;99.90;;;;;;5115990;28;20039;-62
2022/12/12 05:43:47;;;;;;;25.65;14.77;;;0.60;99.90;;;;;;5114925;28;20035;-62
2022/12/12 05:46:13;;;;;;;28.23;16.38;;;0.60;99.90;;;;;;5115542;28;20031;-62
2022/12/12 05:48:39;;;;;;;31.38;18.35;;;0.60;99.90;;;;;;5116102;28;20040;-62
2022/12/12 05:51:05;;;;;;;26.40;14.93;;;0.60;99.90;;;;;;5115651;28;20036;-62
2022/12/12 05:53:30;;;;;;;27.60;15.85;;;0.70;99.90;;;;;;5116007;27;20487;-62
2022/12/12 05:55:56;;;;;;;29.00;15.30;;;0.60;99.90;;;;;;5114305;28;20035;-62
2022/12/12 05:58:22;;;;;;;29.70;15.65;;;0.70;99.90;;;;;;5115872;28;20126;-62
2022/12/12 06:00:49;;;;;;;24.00;14.57;;;0.60;99.90;;;;;;5115426;28;20035;-62
2022/12/12 06:03:14;;;;;;;26.35;14.90;;;0.60;99.90;;;;;;5115604;27;20043;-62
2022/12/12 06:05:40;;;;;;;26.25;15.45;;;0.70;99.90;;;;;;5115791;28;20400;-62
2022/12/12 06:08:06;;;;;;;27.17;14.73;;;0.70;99.90;;;;;;5115377;28;20395;-62
2022/12/12 06:10:32;;;;;;;26.88;14.27;;;0.70;99.90;;;;;;5115527;28;20047;-62
2022/12/12 06:12:57;;;;;;;28.52;14.98;;;0.70;99.90;;;;;;5115728;28;20049;-62
2022/12/12 06:15:23;;;;;;;25.30;14.82;;;0.70;99.90;;;;;;5114742;28;20457;-62
2022/12/12 06:17:50;;;;;;;26.00;13.70;;;0.70;99.90;;;;;;5114204;28;20127;-62
2022/12/12 06:20:17;;;;;;;26.08;14.32;;;0.70;99.90;;;;;;5114075;28;20036;-62
2022/12/12 06:22:43;;;;;;;25.45;13.82;;;0.70;99.90;;;;;;5113491;28;20608;-62
2022/12/12 06:25:09;;;;;;;24.58;13.93;;;0.70;99.90;;;;;;5114091;28;20047;-62
2022/12/12 06:27:35;;;;;;;23.95;12.98;;;0.70;99.90;;;;;;5113557;28;20055;-62
2022/12/12 06:30:02;;;;;;;24.52;13.55;;;0.70;99.90;;;;;;5114120;28;20051;-62
2022/12/12 06:32:28;;;;;;;25.75;14.73;;;0.60;99.90;;;;;;5114053;28;20391;-62
2022/12/12 06:34:53;;;;;;;23.08;12.63;;;0.60;99.90;;;;;;5113272;28;20040;-62
2022/12/12 06:37:20;;;;;;;24.13;13.60;;;0.60;99.90;;;;;;5113755;28;20082;-62
2022/12/12 06:39:45;;;;;;;24.42;13.27;;;0.60;99.90;;;;;;5115319;27;20035;-62
2022/12/12 06:42:11;;;;;;;25.63;14.60;;;0.60;99.90;;;;;;5114592;28;20395;-62
2022/12/12 06:44:37;;;;;;;26.52;16.05;;;0.60;99.90;;;;;;5113754;28;20047;-62
2022/12/12 06:47:03;;;;;;;24.00;13.93;;;0.60;99.90;;;;;;5095711;28;20036;-62
2022/12/12 06:49:28;;;;;;;24.15;14.70;;;0.60;99.90;;;;;;5114277;28;20031;-61
2022/12/12 06:51:54;;;;;;;24.70;14.30;;;0.60;99.90;;;;;;5114782;28;20541;-62
2022/12/12 06:54:20;;;;;;;25.83;15.15;;;0.60;99.90;;;;;;5114827;28;20042;-61
2022/12/12 06:56:46;;;;;;;24.75;14.10;;;0.60;99.90;;;;;;5114216;28;20476;-62
2022/12/12 06:59:12;;;;;;;21.00;11.93;;;0.60;99.90;;;;;;5113106;28;20081;-62
2022/12/12 07:01:38;;;;;;;24.00;14.05;;;0.60;99.90;;;;;;5114555;28;20114;-62
2022/12/12 07:04:04;;;;;;;24.77;13.85;;;0.60;99.90;;;;;;5108098;28;20519;-62
2022/12/12 07:06:30;;;;;;;23.83;14.18;;;0.60;99.90;;;;;;5112027;28;20039;-62
2022/12/12 07:08:57;;;;;;;23.35;13.85;;;0.60;99.90;;;;;;5111755;28;20066;-61
2022/12/12 07:11:25;;;;;;;24.88;12.63;;;0.60;99.90;;;;;;5109892;28;20066;-62
2022/12/12 07:13:51;;;;;;;25.20;12.25;;;0.60;99.90;;;;;;5106725;27;20071;-62
2022/12/12 07:16:18;;;;;;;22.92;12.55;;;0.60;99.90;;;;;;5110193;28;20051;-62
2022/12/12 07:18:43;;;;;;;23.13;13.55;;;0.60;99.90;;;;;;5111117;28;20051;-62
2022/12/12 07:21:13;;;;;;;25.23;13.77;;;0.60;99.90;;;;;;5110538;28;20044;-62
2022/12/12 07:23:38;;;;;;;23.00;12.93;;;0.60;99.90;;;;;;5110560;28;20040;-61
2022/12/12 07:26:17;;;;;;;25.73;13.77;;;0.60;99.90;;;;;;5109859;28;20465;-62
2022/12/12 07:28:43;;;;;;;25.58;13.23;;;0.60;99.90;;;;;;5109770;28;20297;-62
2022/12/12 07:31:12;;;;;;;23.00;12.43;;;0.60;99.90;;;;;;5110881;28;20048;-62
2022/12/12 07:33:40;;;;;;;27.35;15.32;;;0.60;99.90;;;;;;5110504;28;20075;-62
2022/12/12 07:36:06;;;;;;;24.15;13.23;;;0.60;99.90;;;;;;5109709;28;20039;-62
2022/12/12 07:38:31;;;;;;;25.73;12.45;;;0.60;99.90;;;;;;5110166;28;20043;-62
2022/12/12 07:41:12;;;;;;;23.67;13.27;;;0.60;99.90;;;;;;5092364;28;20040;-61
2022/12/12 07:43:40;;;;;;;26.08;13.05;;;0.60;99.90;;;;;;5109994;28;20537;-62
2022/12/12 07:46:06;;;;;;;22.50;12.77;;;0.60;99.90;;;;;;5109154;28;20165;-62
2022/12/12 07:48:32;;;;;;;24.42;13.52;;;0.60;99.90;;;;;;5110109;28;20492;-62
2022/12/12 07:50:59;;;;;;;23.95;12.93;;;0.60;99.90;;;;;;5109922;28;20122;-62
2022/12/12 07:53:25;;;;;;;23.27;13.18;;;0.60;99.90;;;;;;5111088;27;20067;-62
2022/12/12 07:55:50;;;;;;;25.02;13.73;;;0.60;99.90;;;;;;5109619;28;20132;-62
2022/12/12 07:58:16;;;;;;;24.92;14.38;;;0.60;99.90;;;;;;5110971;28;20043;-62
2022/12/12 08:00:42;;;;;;;25.77;13.13;;;0.60;99.90;;;;;;5109900;28;20039;-62
2022/12/12 08:03:07;;;;;;;23.60;14.02;;;0.60;99.90;;;;;;5110001;28;20051;-62
2022/12/12 08:05:33;;;;;;;21.05;12.32;;;0.60;99.90;;;;;;5111049;28;20420;-62
2022/12/12 08:07:59;;;;;;;23.30;13.00;;;0.60;99.90;;;;;;5110204;28;20777;-62
2022/12/12 08:10:25;;;;;;;24.23;13.57;;;0.60;99.90;;;;;;5110642;28;20499;-62
2022/12/12 08:12:50;;;;;;;19.83;11.95;;;0.70;99.90;;;;;;5109207;28;20051;-62
2022/12/12 08:15:16;;;;;;;22.67;12.85;;;0.70;99.90;;;;;;5110046;28;20039;-62
2022/12/12 08:17:43;;;;;;;23.67;13.95;;;0.70;99.90;;;;;;5108854;28;20044;-62
2022/12/12 08:20:09;;;;;;;23.63;13.45;;;0.70;99.90;;;;;;5110548;28;20039;-62
2022/12/12 08:22:35;;;;;;;22.67;13.23;;;0.70;99.90;;;;;;5111771;28;20070;-62
2022/12/12 08:25:02;;;;;;;25.95;15.35;;;0.70;99.90;;;;;;5094377;28;20856;-62
2022/12/12 08:27:28;;;;;;;27.70;15.48;;;0.70;99.90;;;;;;5094123;28;20122;-61
2022/12/12 08:29:54;;;;;;;26.45;14.43;;;0.70;99.90;;;;;;5112697;28;20056;-62
2022/12/12 08:32:20;;;;;;;21.58;12.23;;;0.70;99.90;;;;;;5112636;28;20369;-62
2022/12/12 08:34:46;;;;;;;24.77;13.25;;;0.70;99.90;;;;;;5111228;28;20043;-62
2022/12/12 08:37:12;;;;;;;22.13;13.32;;;0.70;99.90;;;;;;5110071;28;20150;-62
2022/12/12 08:43:19;;;;;;;25.17;14.52;;;0.70;99.90;;;;;;5106332;27;20030;-62
2022/12/12 08:45:46;;;;;;;24.13;15.20;;;0.70;99.90;;;;;;5106275;28;20040;-62
2022/12/12 09:23:36;;;;;;;21.70;12.40;;;0.60;99.90;;;;;;5109164;27;20392;-62
2022/12/12 09:26:06;;;;;;;21.70;12.40;;;0.50;99.90;;;;;;5066684;28;20102;-62
2022/12/12 09:28:32;;;;;;;22.27;12.10;;;0.50;99.90;;;;;;5084941;28;20073;-63
2022/12/12 09:30:58;;;;;;;20.67;12.75;;;0.50;99.90;;;;;;5064787;28;20109;-62
2022/12/12 09:33:24;;;;;;;20.55;11.63;;;0.50;99.90;;;;;;5083410;28;20481;-63
2022/12/12 09:36:01;;;;;;;21.63;11.77;;;0.50;99.90;;;;;;5085496;28;20048;-63
2022/12/12 09:38:27;;;;;;;19.88;11.43;;;0.60;99.90;;;;;;5086628;28;20046;-62
2022/12/12 09:40:53;;;;;;;21.92;11.60;;;0.70;99.90;;;;;;5082593;28;20134;-63
2022/12/12 09:43:24;;;;;;;25.77;13.18;;;0.70;99.90;;;;;;5051491;28;20091;-62
2022/12/12 09:45:50;;;;;;;26.10;12.70;;;0.70;99.90;;;;;;5068193;28;20039;-62
2022/12/12 09:48:32;;;;;;;23.70;12.18;;;0.80;99.90;;;;;;5086233;28;20040;-62
2022/12/12 09:50:57;;;;;;;24.83;11.82;;;0.80;99.90;;;;;;5068035;28;20856;-62
2022/12/12 09:53:25;;;;;;;22.73;12.38;;;0.80;99.90;;;;;;5067499;28;20098;-62
2022/12/12 09:56:06;;;;;;;25.13;14.32;;;0.80;99.90;;;;;;5068059;28;20052;-62
2022/12/12 09:58:42;;;;;;;28.73;13.68;;;0.80;99.90;;;;;;5086207;28;20044;-61
2022/12/12 10:01:16;;;;;;;28.23;14.73;;;0.80;99.90;;;;;;5085844;28;20040;-62
2022/12/12 10:03:46;;;;;;;30.02;15.95;;;0.80;99.90;;;;;;5067537;28;20071;-62
2022/12/12 10:06:14;;;;;;;25.92;14.00;;;0.80;99.90;;;;;;5085724;28;20119;-61
2022/12/12 10:09:08;;;;;;;26.73;13.82;;;0.90;99.90;;;;;;5054700;28;20043;-61
2022/12/12 10:11:53;;;;;;;23.17;13.73;;;0.90;99.90;;;;;;5061713;28;20048;-62
2022/12/12 10:14:44;;;;;;;23.30;13.43;;;0.90;99.90;;;;;;5050844;28;20443;-62
2022/12/12 10:17:21;;;;;;;25.05;13.55;;;0.90;99.90;;;;;;5078556;28;20134;-62
2022/12/12 10:19:58;;;;;;;22.92;14.27;;;0.90;99.90;;;;;;5086440;28;20119;-63
2022/12/12 10:22:54;;;;;;;26.00;15.27;;;1.00;99.90;;;;;;5071278;28;20058;-62
2022/12/12 10:25:26;;;;;;;24.88;13.70;;;1.00;99.90;;;;;;5078565;28;20047;-63
2022/12/12 10:28:08;;;;;;;23.67;14.10;;;1.00;99.90;;;;;;5087855;28;20033;-63
2022/12/12 10:30:51;;;;;;;23.90;13.15;;;1.00;99.90;;;;;;5084046;28;20365;-62
2022/12/12 10:33:40;;;;;;;24.73;13.07;;;0.90;99.90;;;;;;5085999;28;20048;-63
2022/12/12 10:36:11;;;;;;;21.95;12.10;;;0.90;99.90;;;;;;5092567;28;20399;-62
2022/12/12 10:39:11;;;;;;;26.45;13.13;;;1.00;99.90;;;;;;5083388;28;20035;-62
2022/12/12 10:41:36;;;;;;;26.45;13.57;;;1.00;99.90;;;;;;5065351;28;20036;-63
2022/12/12 10:44:17;;;;;;;24.52;14.27;;;1.00;99.90;;;;;;5062118;28;20043;-63
2022/12/12 10:46:45;;;;;;;26.90;14.50;;;1.10;99.90;;;;;;5091512;28;20044;-63
2022/12/12 10:49:17;;;;;;;24.15;13.60;;;1.10;99.90;;;;;;5057083;28;20036;-63
2022/12/12 10:51:44;;;;;;;25.40;14.73;;;1.10;99.90;;;;;;5070141;28;20052;-63
2022/12/12 10:54:17;;;;;;;25.63;12.98;;;1.20;99.90;;;;;;5073656;28;20040;-62
2022/12/12 10:57:12;;;;;;;30.52;17.10;;;1.20;99.90;;;;;;5061014;28;20169;-63
2022/12/12 10:59:40;;;;;;;26.45;15.43;;;1.20;99.90;;;;;;5062222;28;20044;-63
2022/12/12 11:02:27;;;;;;;27.38;14.85;;;1.20;99.90;;;;;;5073996;28;20083;-63
2022/12/12 11:05:04;;;;;;;27.30;14.88;;;1.30;99.90;;;;;;5075831;28;20044;-63
2022/12/12 11:07:34;;;;;;;23.45;15.00;;;1.20;99.90;;;;;;5067890;28;20066;-63
2022/12/12 11:10:00;;;;;;;27.48;14.85;;;1.20;99.90;;;;;;5078330;28;20116;-63
2022/12/12 11:12:34;;;;;;;22.70;13.02;;;1.30;99.90;;;;;;5093701;28;20118;-63
2022/12/12 11:15:14;;;;;;;23.23;13.85;;;1.30;99.90;;;;;;5077254;28;20032;-63
2022/12/12 11:17:40;;;;;;;26.00;14.77;;;1.30;99.90;;;;;;5067161;28;20098;-63
2022/12/12 11:20:13;;;;;;;25.80;14.23;;;1.40;99.90;;;;;;5076872;28;20040;-63
2022/12/12 11:22:38;;;;;;;24.63;14.32;;;1.40;99.90;;;;;;5073745;28;20052;-63
2022/12/12 11:25:05;;;;;;;24.58;14.27;;;1.50;99.90;;;;;;5067763;28;20092;-63
2022/12/12 11:27:39;;;;;;;25.63;14.23;;;1.60;99.90;;;;;;5073654;28;20040;-63
2022/12/12 11:30:06;;;;;;;25.53;15.37;;;1.60;99.90;;;;;;5057480;28;20043;-63
2022/12/12 11:32:42;;;;;;;26.25;15.20;;;1.70;99.90;;;;;;5083707;28;20046;-63
2022/12/12 11:35:22;;;;;;;27.77;14.98;;;1.70;99.90;;;;;;5062087;28;20055;-63
2022/12/12 11:37:52;;;;;;;25.67;14.98;;;1.80;99.90;;;;;;5053965;28;20056;-64
2022/12/12 11:40:28;;;;;;;27.23;14.65;;;1.70;99.90;;;;;;5048697;28;20059;-63
2022/12/12 11:43:26;;;;;;;27.10;15.15;;;1.80;99.90;;;;;;5072804;28;20072;-64
2022/12/12 11:46:03;;;;;;;26.02;13.68;;;1.80;99.90;;;;;;5042275;28;20070;-63
2022/12/12 11:48:35;;;;;;;23.58;13.40;;;1.80;99.90;;;;;;5078567;28;20140;-63
2022/12/12 11:51:02;;;;;;;26.70;15.13;;;1.80;99.90;;;;;;5078776;28;20102;-62
2022/12/12 11:53:28;;;;;;;24.42;15.77;;;1.90;99.90;;;;;;5071780;28;20127;-63
2022/12/12 11:56:21;;;;;;;24.40;14.57;;;1.90;99.90;;;;;;5067447;28;20055;-63
2022/12/12 11:59:06;;;;;;;23.40;13.57;;;2.00;99.90;;;;;;5057186;28;20443;-63
2022/12/12 12:01:47;;;;;;;26.42;13.57;;;2.00;99.90;;;;;;5071410;28;20493;-63
2022/12/12 12:04:39;;;;;;;23.98;13.27;;;2.00;99.90;;;;;;5055004;28;20044;-62
2022/12/12 12:07:28;;;;;;;21.27;13.20;;;2.10;99.90;;;;;;5071985;28;20043;-62
2022/12/12 12:10:12;;;;;;;21.77;13.05;;;2.00;99.90;;;;;;5063741;28;20094;-62
2022/12/12 12:13:00;;;;;;;24.02;14.57;;;2.00;99.90;;;;;;5068976;28;20040;-62
2022/12/12 12:15:47;;;;;;;22.63;12.02;;;2.00;99.90;;;;;;5054740;28;20413;-62
2022/12/12 12:18:31;;;;;;;20.75;12.18;;;2.00;99.90;;;;;;5070969;28;20508;-62
2022/12/12 12:21:18;;;;;;;21.92;14.30;;;2.00;99.90;;;;;;5047921;28;20036;-62
2022/12/12 12:24:09;;;;;;;25.98;14.18;;;2.00;99.90;;;;;;5058832;28;20439;-62
2022/12/12 12:26:45;;;;;;;23.15;13.52;;;2.00;99.90;;;;;;5077353;28;20116;-61
2022/12/12 12:29:38;;;;;;;26.02;13.93;;;2.00;99.90;;;;;;5071810;28;20066;-62
2022/12/12 12:32:25;;;;;;;23.90;13.35;;;2.00;99.90;;;;;;5054222;28;20075;-61
2022/12/12 12:35:12;;;;;;;23.98;12.82;;;2.00;99.90;;;;;;5054162;28;20040;-61
2022/12/12 12:38:02;;;;;;;20.27;11.52;;;2.00;99.90;;;;;;5054202;28;20037;-62
2022/12/12 12:41:03;;;;;;;22.13;12.75;;;2.00;99.90;;;;;;5055159;28;20355;-61
2022/12/12 12:43:46;;;;;;;23.38;13.45;;;2.10;99.90;;;;;;5062280;28;20050;-62
2022/12/12 12:46:37;;;;;;;21.27;12.55;;;2.10;99.90;;;;;;5082762;28;20040;-62
2022/12/12 12:49:26;;;;;;;20.88;11.57;;;2.10;99.90;;;;;;5068209;28;20059;-62
2022/12/12 12:52:01;;;;;;;21.38;11.63;;;2.10;99.90;;;;;;5073065;28;20036;-62
2022/12/12 12:54:31;;;;;;;;;;;2.10;99.90;;;;;;5073897;28;20385;-62
2022/12/12 12:57:08;;;;;;;17.50;10.55;;;2.00;99.90;;;;;;5074527;28;20304;-62
2022/12/12 12:59:39;;;;;;;20.33;11.23;;;2.00;99.90;;;;;;5072485;28;20040;-62
2022/12/12 13:02:49;;;;;;;20.92;13.05;;;2.10;99.90;;;;;;5069652;28;20047;-62
2022/12/12 13:05:27;;;;;;;16.92;9.80;;;2.10;99.90;;;;;;4974214;28;20467;-62
2022/12/12 13:08:05;;;;;;;20.55;11.27;;;2.00;99.90;;;;;;5061658;28;20501;-62
2022/12/12 13:10:32;;;;;;;20.15;11.38;;;2.00;99.90;;;;;;5069099;28;20127;-62
2022/12/12 13:13:29;;;;;;;19.20;10.52;;;2.00;99.90;;;;;;5090784;28;20055;-62
2022/12/12 13:16:00;;;;;;;18.48;11.13;;;2.00;99.90;;;;;;5040721;28;20048;-62
2022/12/12 13:18:29;;;;;;;20.88;11.93;;;2.00;99.90;;;;;;5059178;28;20048;-62
2022/12/12 13:21:00;;;;;;;19.58;12.10;;;2.00;99.90;;;;;;5070448;28;20048;-62
2022/12/12 13:23:49;;;;;;;24.27;13.52;;;1.90;99.90;;;;;;5076595;28;20044;-62
2022/12/12 13:26:43;;;;;;;20.35;12.45;;;1.90;99.90;;;;;;5070372;28;20040;-62
2022/12/12 13:29:28;;;;;;;21.58;12.05;;;1.90;99.90;;;;;;5046822;28;20403;-62
2022/12/12 13:32:10;;;;;;;25.25;13.95;;;1.90;99.90;;;;;;5061701;28;20425;-62
2022/12/12 13:34:42;;;;;;;21.88;12.70;;;1.90;99.90;;;;;;5055169;28;20491;-62
2022/12/12 13:37:11;;;;;;;22.13;12.35;;;1.90;99.90;;;;;;5051357;28;20045;-62
2022/12/12 13:39:37;;;;;;;21.42;12.75;;;1.80;99.90;;;;;;5062959;28;20048;-62
2022/12/12 13:42:06;;;;;;;23.30;13.70;;;1.70;99.90;;;;;;5056562;28;20048;-62
2022/12/12 13:44:45;;;;;;;19.38;11.82;;;1.70;99.90;;;;;;5039755;28;20040;-63
2022/12/12 13:47:23;;;;;;;20.23;11.88;;;1.70;99.90;;;;;;5060378;28;20111;-62
2022/12/12 13:50:05;;;;;;;22.08;13.40;;;1.60;99.90;;;;;;5072615;28;20033;-62
2022/12/12 13:52:34;;;;;;;23.48;11.98;;;1.60;99.90;;;;;;5069658;28;20048;-62
2022/12/12 13:55:12;;;;;;;20.05;11.85;;;1.60;99.90;;;;;;5038277;28;20052;-62
2022/12/12 13:58:15;;;;;;;19.02;12.13;;;1.60;99.90;;;;;;5088650;28;20044;-62
2022/12/12 14:00:41;;;;;;;19.73;11.82;;;1.50;99.90;;;;;;5042286;28;20497;-62
2022/12/12 14:03:24;;;;;;;21.38;12.43;;;1.50;99.90;;;;;;5036914;28;20067;-62
2022/12/12 14:05:51;;;;;;;18.35;10.93;;;1.50;99.90;;;;;;5069398;28;20742;-62